aviador You're here:

EPGD Decoded Metar

GDANSK in POLAND
Report Time2017-08-21 23:30:00
UTC Time2017-08-21 23:56:02
Flight Rules lifr LIFR
Wind240° at 03 kt
W.Decomp.*RWY 29: 1.7 kt HW 2.5 kt LCW
W.Rank240° ranks 5
Current wind is below 240° avg. (7.0)
Visibility9999 m
Phenomena:N/A
Clouds:Broken 004 Hf
Expected CloudBase > 400 ft AGL from Temp-Dew spread
Ceiling400 ft
Temp12°C (ISA -2)
Dew Point11°C (94% RH)
AAT11.3°C
QNH1015 hPa
Density Alt312 ft
Elevation453 ft
Report Wrong Elevation
Raw Report
EPGD 212330Z 24003KT 9999 BKN004 12/11 Q1015=

Extra information for EPGD:More info

Metar Taf Metar & Taf Last 4 Metars F.Rules Stats Wind Profile Meteogram Temp Stats Airport Information Weather charts Add Link Nearby VenuesMetar ALERT Operation Metar Decoded Social comments